createdAt,value
2022-10-14T00:01:26.937Z,101088.88
2022-10-14T00:03:55.562Z,101084.50
2022-10-14T00:06:26.090Z,101084.50
2022-10-14T00:08:54.821Z,101086.28
2022-10-14T00:11:25.618Z,101086.28
2022-10-14T00:13:57.456Z,101082.78
2022-10-14T00:16:27.775Z,101082.72
2022-10-14T00:18:55.971Z,101080.06
2022-10-14T00:21:24.039Z,101083.66
2022-10-14T00:23:52.076Z,101079.16
2022-10-14T00:26:22.431Z,101085.47
2022-10-14T00:28:51.483Z,101077.44
2022-10-14T00:31:21.289Z,101063.38
2022-10-14T00:33:49.810Z,101083.66
2022-10-14T00:36:20.074Z,101084.50
2022-10-14T00:38:48.829Z,101083.66
2022-10-14T00:41:20.519Z,101079.09
2022-10-14T00:43:58.095Z,101093.44
2022-10-14T00:46:29.264Z,101082.84
2022-10-14T00:48:58.686Z,101083.66
2022-10-14T00:51:27.165Z,101087.25
2022-10-14T00:53:55.257Z,101081.03
2022-10-14T00:56:28.234Z,101080.97
2022-10-14T00:58:57.032Z,101083.66
2022-10-14T01:01:25.120Z,101073.84
2022-10-14T01:03:54.429Z,101073.91
2022-10-14T01:06:37.249Z,101079.31
2022-10-14T01:09:14.449Z,101073.09
2022-10-14T01:12:09.856Z,101073.06
2022-10-14T01:14:47.273Z,101073.06
2022-10-14T01:17:23.741Z,101073.06
2022-10-14T01:20:31.354Z,101074.91
2022-10-14T01:23:12.688Z,101073.16
2022-10-14T01:25:52.887Z,101074.88
2022-10-14T01:28:30.318Z,101064.97
2022-10-14T01:31:04.417Z,101058.00
2022-10-14T01:33:38.670Z,101065.06
2022-10-14T01:36:12.674Z,101067.75
2022-10-14T01:38:45.977Z,101073.16
2022-10-14T01:41:19.942Z,101065.94
2022-10-14T01:43:51.256Z,101061.47
2022-10-14T01:46:24.125Z,101065.03
2022-10-14T01:48:56.386Z,101072.13
2022-10-14T01:51:31.782Z,101065.03
2022-10-14T01:54:04.045Z,101061.47
2022-10-14T01:56:38.145Z,101054.31
2022-10-14T01:59:11.702Z,101057.00
2022-10-14T02:01:41.417Z,101054.38
2022-10-14T02:04:16.314Z,101050.97
2022-10-14T02:06:50.562Z,101051.75
2022-10-14T02:09:26.343Z,101054.41
2022-10-14T02:12:05.718Z,101054.47
2022-10-14T02:14:40.946Z,101053.59
2022-10-14T02:17:15.903Z,101058.94
2022-10-14T02:19:51.291Z,101048.22
2022-10-14T02:22:26.354Z,101052.78
2022-10-14T02:24:57.193Z,101049.22
2022-10-14T02:27:27.346Z,101048.34
2022-10-14T02:29:57.395Z,101052.81
2022-10-14T02:32:28.653Z,101045.66
2022-10-14T02:34:59.871Z,101039.44
2022-10-14T02:37:28.889Z,101049.22
2022-10-14T02:40:00.279Z,101041.16
2022-10-14T02:42:29.092Z,101042.94
2022-10-14T02:45:00.129Z,101042.97
2022-10-14T02:47:29.636Z,101042.13
2022-10-14T02:49:57.557Z,101039.50
2022-10-14T02:52:25.970Z,101049.31
2022-10-14T02:54:53.929Z,101046.69
2022-10-14T02:57:21.931Z,101046.75
2022-10-14T02:59:49.900Z,101044.00
2022-10-14T03:02:17.812Z,101048.50
2022-10-14T03:04:47.135Z,101049.38
2022-10-14T03:07:15.064Z,101043.16
2022-10-14T03:09:43.055Z,101041.38
2022-10-14T03:12:11.029Z,101037.75
2022-10-14T03:14:39.022Z,101043.09
2022-10-14T03:17:06.968Z,101041.25
2022-10-14T03:19:35.043Z,101037.75
2022-10-14T03:22:04.424Z,101037.75
2022-10-14T03:24:32.338Z,101036.94
2022-10-14T03:27:00.340Z,101040.41
2022-10-14T03:29:28.274Z,101037.75
2022-10-14T03:31:56.199Z,101037.75
2022-10-14T03:34:24.149Z,101030.63
2022-10-14T03:36:52.172Z,101035.94
2022-10-14T03:39:21.640Z,101035.94
2022-10-14T03:41:49.647Z,101035.94
2022-10-14T03:44:17.714Z,101036.78
2022-10-14T03:46:45.667Z,101042.13
2022-10-14T03:49:14.268Z,101042.19
2022-10-14T03:51:42.267Z,101032.38
2022-10-14T03:54:10.253Z,101034.22
2022-10-14T03:56:39.610Z,101037.75
2022-10-14T03:59:08.604Z,101030.59
2022-10-14T04:01:40.187Z,101029.72
2022-10-14T04:04:08.183Z,101027.16
2022-10-14T04:06:36.618Z,101032.44
2022-10-14T04:09:04.753Z,101034.25
2022-10-14T04:11:33.256Z,101029.78
2022-10-14T04:14:03.716Z,101027.19
2022-10-14T04:16:32.717Z,101029.88
2022-10-14T04:19:00.785Z,101022.72
2022-10-14T04:21:28.821Z,101022.72
2022-10-14T04:23:56.806Z,101019.19
2022-10-14T04:26:24.715Z,101016.50
2022-10-14T04:28:52.744Z,101012.13
2022-10-14T04:31:22.646Z,101004.09
2022-10-14T04:33:50.590Z,101004.09
2022-10-14T04:36:18.548Z,101002.28
2022-10-14T04:38:46.477Z,100990.84
2022-10-14T04:41:14.457Z,100997.16
2022-10-14T04:43:42.402Z,100994.53
2022-10-14T04:46:10.325Z,100997.25
2022-10-14T04:48:39.633Z,100992.81
2022-10-14T04:51:07.704Z,101004.41
2022-10-14T04:53:35.678Z,101001.75
2022-10-14T04:56:03.634Z,101006.16
2022-10-14T04:58:31.639Z,100994.53
2022-10-14T05:00:59.589Z,101001.59
2022-10-14T05:03:27.581Z,100998.00
2022-10-14T05:05:56.901Z,100992.59
2022-10-14T05:08:24.810Z,100997.00
2022-10-14T05:10:52.781Z,100997.00
2022-10-14T05:13:20.766Z,100997.00
2022-10-14T05:15:48.914Z,100994.19
2022-10-14T05:18:18.213Z,100992.47
2022-10-14T05:20:46.757Z,100994.31
2022-10-14T05:23:16.102Z,101000.63
2022-10-14T05:25:44.055Z,100993.50
2022-10-14T05:28:11.967Z,100986.41
2022-10-14T05:30:39.918Z,100991.75
2022-10-14T05:33:08.104Z,100989.06
2022-10-14T05:35:57.626Z,100992.59
2022-10-14T05:38:25.509Z,100991.63
2022-10-14T05:40:54.678Z,100992.59
2022-10-14T05:43:29.390Z,100989.91
2022-10-14T05:45:59.969Z,100996.13
2022-10-14T05:48:28.132Z,100992.53
2022-10-14T05:50:56.122Z,100991.63
2022-10-14T05:53:25.521Z,100996.06
2022-10-14T05:55:53.552Z,100994.31
2022-10-14T05:58:21.672Z,100988.03
2022-10-14T06:00:49.658Z,100976.47
2022-10-14T06:03:17.693Z,100987.13
2022-10-14T06:05:46.397Z,100986.22
2022-10-14T06:08:14.506Z,100981.78
2022-10-14T06:10:43.857Z,100976.38
2022-10-14T06:13:11.802Z,100979.00
2022-10-14T06:15:39.951Z,100984.34
2022-10-14T06:18:07.928Z,100984.34
2022-10-14T06:20:36.420Z,100975.41
2022-10-14T06:23:04.858Z,100981.59
2022-10-14T06:25:32.903Z,100977.13
2022-10-14T06:28:05.368Z,100973.53
2022-10-14T06:30:33.526Z,100975.34
2022-10-14T06:33:01.651Z,100980.69
2022-10-14T06:35:29.630Z,100971.72
2022-10-14T06:37:57.598Z,100973.53
2022-10-14T06:40:25.826Z,100973.53
2022-10-14T06:42:54.081Z,100971.53
2022-10-14T06:45:23.417Z,100976.03
2022-10-14T06:47:51.390Z,100979.59
2022-10-14T06:50:19.437Z,100971.63
2022-10-14T06:52:47.762Z,100974.19
2022-10-14T06:55:16.512Z,100975.91
2022-10-14T06:57:45.010Z,100977.63
2022-10-14T07:00:13.661Z,100969.66
2022-10-14T07:02:42.938Z,100976.72
2022-10-14T07:05:11.133Z,100973.16
2022-10-14T07:07:39.158Z,100980.34
2022-10-14T07:10:07.956Z,100970.56
2022-10-14T07:12:35.970Z,100975.91
2022-10-14T07:15:04.895Z,100974.16
2022-10-14T07:17:32.985Z,100980.34
2022-10-14T07:20:02.380Z,100974.19
2022-10-14T07:22:31.528Z,100981.28
2022-10-14T07:25:00.965Z,100973.22
2022-10-14T07:27:28.962Z,100973.22
2022-10-14T07:29:56.940Z,100977.56
2022-10-14T07:32:24.915Z,100975.72
2022-10-14T07:34:53.022Z,100966.13
2022-10-14T07:37:22.840Z,100976.47
2022-10-14T07:39:51.015Z,100971.91
2022-10-14T07:44:54.018Z,100971.78
2022-10-14T07:47:22.825Z,100976.22
2022-10-14T07:49:51.320Z,100977.94
2022-10-14T07:52:20.120Z,100981.53
2022-10-14T07:54:49.548Z,100983.31
2022-10-14T07:57:17.758Z,100977.91
2022-10-14T07:59:46.725Z,100987.78
2022-10-14T08:02:14.722Z,100978.84
2022-10-14T08:04:42.653Z,100986.88
2022-10-14T08:07:10.578Z,100993.03
2022-10-14T08:09:38.681Z,100990.31
2022-10-14T08:12:08.559Z,100994.75
2022-10-14T08:14:36.718Z,100991.88
2022-10-14T08:17:04.713Z,100992.69
2022-10-14T08:19:32.889Z,100991.03
2022-10-14T08:22:00.806Z,100986.59
2022-10-14T08:24:28.937Z,100992.81
2022-10-14T08:27:00.573Z,100993.88
2022-10-14T08:29:29.900Z,100995.47
2022-10-14T08:31:57.874Z,100994.63
2022-10-14T08:34:25.951Z,100985.84
2022-10-14T08:36:53.924Z,100983.19
2022-10-14T08:39:22.663Z,100985.84
2022-10-14T08:42:32.745Z,100987.44
2022-10-14T08:45:08.862Z,100985.63
2022-10-14T08:47:38.773Z,100986.41
2022-10-14T08:50:18.366Z,100992.56
2022-10-14T08:52:51.656Z,100982.59
2022-10-14T08:55:28.489Z,100983.31
2022-10-14T08:58:02.055Z,100977.72
2022-10-14T09:00:34.621Z,100969.19
2022-10-14T09:03:06.891Z,100970.47
2022-10-14T09:05:34.948Z,100965.69
2022-10-14T09:08:03.734Z,100966.38
2022-10-14T09:10:35.792Z,100953.75
2022-10-14T09:13:11.756Z,100959.84
2022-10-14T09:15:44.813Z,100952.25
2022-10-14T09:18:22.502Z,100955.69
2022-10-14T09:20:50.776Z,100947.28
2022-10-14T09:23:21.120Z,100946.50
2022-10-14T09:25:58.543Z,100948.66
2022-10-14T09:28:34.708Z,100943.06
2022-10-14T09:31:04.926Z,100947.09
2022-10-14T09:33:38.191Z,100941.19
2022-10-14T09:36:16.612Z,100940.53
2022-10-14T09:38:46.101Z,100945.75
2022-10-14T09:41:16.902Z,100944.00
2022-10-14T09:44:21.252Z,100935.53
2022-10-14T09:46:57.154Z,100946.88
2022-10-14T09:49:39.033Z,100941.66
2022-10-14T09:52:07.970Z,100945.25
2022-10-14T09:54:36.329Z,100938.75
2022-10-14T09:57:08.093Z,100933.34
2022-10-14T09:59:53.775Z,100935.31
2022-10-14T10:02:26.832Z,100925.09
2022-10-14T10:04:57.972Z,100928.88
2022-10-14T10:07:33.838Z,100930.44
2022-10-14T10:10:05.037Z,100922.75
2022-10-14T10:12:34.727Z,100923.91
2022-10-14T10:15:06.785Z,100916.88
2022-10-14T10:17:40.529Z,100924.88
2022-10-14T10:20:19.271Z,100917.84
2022-10-14T10:22:47.685Z,100915.44
2022-10-14T10:25:27.989Z,100907.22
2022-10-14T10:27:59.822Z,100909.22
2022-10-14T10:30:29.520Z,100909.38
2022-10-14T10:33:16.769Z,100906.88
2022-10-14T10:36:02.233Z,100903.72
2022-10-14T10:38:32.716Z,100908.84
2022-10-14T10:41:17.348Z,100899.94
2022-10-14T10:43:57.173Z,100891.88
2022-10-14T10:46:51.509Z,100891.50
2022-10-14T10:49:36.223Z,100898.81
2022-10-14T10:52:16.201Z,100894.78
2022-10-14T10:54:55.967Z,100883.91
2022-10-14T10:57:43.951Z,100879.69
2022-10-14T11:00:16.464Z,100888.38
2022-10-14T11:03:03.080Z,100883.66
2022-10-14T11:05:44.663Z,100889.53
2022-10-14T11:09:09.459Z,100887.34
2022-10-14T11:12:12.989Z,100881.53
2022-10-14T11:14:57.030Z,100880.97
2022-10-14T11:17:33.824Z,100882.22
2022-10-14T11:20:18.604Z,100882.53
2022-10-14T11:23:09.110Z,100885.03
2022-10-14T11:25:49.254Z,100876.38
2022-10-14T11:28:23.372Z,100886.25
2022-10-14T11:30:58.944Z,100879.84
2022-10-14T11:33:43.029Z,100881.47
2022-10-14T11:36:24.710Z,100885.38
2022-10-14T11:39:10.216Z,100885.72
2022-10-14T11:41:53.898Z,100887.72
2022-10-14T11:44:31.586Z,100880.59
2022-10-14T11:47:05.746Z,100877.34
2022-10-14T11:49:38.546Z,100877.53
2022-10-14T11:52:12.052Z,100872.75
2022-10-14T11:54:46.996Z,100853.94
2022-10-14T11:57:23.962Z,100874.03
2022-10-14T12:00:12.656Z,100864.56
2022-10-14T12:02:48.678Z,100869.41
2022-10-14T12:05:22.375Z,100871.75
2022-10-14T12:08:01.572Z,100861.75
2022-10-14T12:10:35.542Z,100850.53
2022-10-14T12:13:07.931Z,100848.53
2022-10-14T12:15:38.476Z,100848.84
2022-10-14T12:18:07.570Z,100848.03
2022-10-14T12:20:41.721Z,100846.56
2022-10-14T12:23:13.807Z,100843.47
2022-10-14T12:25:53.225Z,100849.63
2022-10-14T12:28:22.170Z,100844.31
2022-10-14T12:30:51.666Z,100842.41
2022-10-14T12:33:22.874Z,100835.19
2022-10-14T12:36:09.121Z,100830.22
2022-10-14T12:38:37.430Z,100826.69
2022-10-14T12:41:39.239Z,100823.78
2022-10-14T12:44:18.750Z,100819.22
2022-10-14T12:46:49.145Z,100807.72
2022-10-14T12:49:19.952Z,100811.97
2022-10-14T12:51:55.759Z,100814.53
2022-10-14T12:54:25.641Z,100804.50
2022-10-14T12:57:00.042Z,100805.78
2022-10-14T12:59:31.261Z,100799.22
2022-10-14T13:02:04.240Z,100808.03
2022-10-14T13:04:36.087Z,100795.78
2022-10-14T13:07:46.872Z,100802.53
2022-10-14T13:10:50.557Z,100788.47
2022-10-14T13:13:55.676Z,100795.50
2022-10-14T13:16:57.183Z,100799.00
2022-10-14T13:19:43.431Z,100790.38
2022-10-14T13:22:42.110Z,100799.09
2022-10-14T13:25:21.473Z,100798.97
2022-10-14T13:28:13.895Z,100791.59
2022-10-14T13:30:55.098Z,100789.75
2022-10-14T13:33:32.631Z,100780.72
2022-10-14T13:36:09.683Z,100778.56
2022-10-14T13:38:39.698Z,100778.16
2022-10-14T13:41:15.992Z,100783.75
2022-10-14T13:43:44.662Z,100774.69
2022-10-14T13:46:17.278Z,100766.72
2022-10-14T13:48:48.345Z,100761.50
2022-10-14T13:51:36.437Z,100762.50
2022-10-14T13:54:15.385Z,100757.59
2022-10-14T13:56:44.149Z,100757.00
2022-10-14T13:59:43.174Z,100747.50
2022-10-14T14:02:15.514Z,100744.03
2022-10-14T14:04:51.613Z,100736.94
2022-10-14T14:07:59.083Z,100734.94
2022-10-14T14:10:13.143Z,100735.69
2022-10-14T14:12:44.390Z,100732.19
2022-10-14T14:15:20.910Z,100725.09
2022-10-14T14:17:48.870Z,100719.44
2022-10-14T14:20:21.265Z,100722.63
2022-10-14T14:22:49.361Z,100712.28
2022-10-14T14:26:01.200Z,100704.13
2022-10-14T14:28:15.213Z,100715.84
2022-10-14T14:30:54.577Z,100709.75
2022-10-14T14:33:30.627Z,100701.75
2022-10-14T14:36:02.485Z,100697.28
2022-10-14T14:38:32.549Z,100691.03
2022-10-14T14:41:05.950Z,100692.09
2022-10-14T14:43:39.706Z,100687.47
2022-10-14T14:46:18.356Z,100685.88
2022-10-14T14:48:54.398Z,100680.50
2022-10-14T14:51:24.701Z,100677.97
2022-10-14T14:53:54.690Z,100670.16
2022-10-14T14:56:27.766Z,100667.75
2022-10-14T14:58:58.976Z,100669.22
2022-10-14T15:01:28.843Z,100652.25
2022-10-14T15:04:13.274Z,100670.00
2022-10-14T15:06:51.215Z,100670.97
2022-10-14T15:09:25.361Z,100673.06
2022-10-14T15:11:55.789Z,100665.22
2022-10-14T15:14:30.697Z,100657.34
2022-10-14T15:16:58.900Z,100660.34
2022-10-14T15:19:38.144Z,100651.75
2022-10-14T15:22:23.991Z,100654.91
2022-10-14T15:25:03.376Z,100655.72
2022-10-14T15:27:50.385Z,100651.44
2022-10-14T15:30:23.822Z,100653.38
2022-10-14T15:32:54.308Z,100650.91
2022-10-14T15:35:23.655Z,100644.97
2022-10-14T15:37:54.009Z,100639.63
2022-10-14T15:40:24.389Z,100638.88
2022-10-14T15:42:52.451Z,100639.81
2022-10-14T15:45:21.868Z,100639.88
2022-10-14T15:50:28.605Z,100625.09
2022-10-14T15:52:58.023Z,100620.09
2022-10-14T15:55:29.625Z,100627.06
2022-10-14T15:57:57.582Z,100618.34
2022-10-14T16:00:25.975Z,100610.28
2022-10-14T16:02:58.422Z,100613.41
2022-10-14T16:05:28.947Z,100607.22
2022-10-14T16:07:58.483Z,100608.13
2022-10-14T16:10:29.371Z,100600.16
2022-10-14T16:12:59.974Z,100602.81
2022-10-14T16:15:33.281Z,100601.16
2022-10-14T16:18:01.765Z,100600.19
2022-10-14T16:20:30.711Z,100589.59
2022-10-14T16:23:01.332Z,100587.00
2022-10-14T16:25:35.364Z,100588.97
2022-10-14T16:28:07.537Z,100585.53
2022-10-14T16:30:39.011Z,100590.25
2022-10-14T16:33:07.509Z,100578.06
2022-10-14T16:35:35.518Z,100588.56
2022-10-14T16:38:04.854Z,100584.97
2022-10-14T16:40:36.634Z,100585.97
2022-10-14T16:43:05.318Z,100580.66
2022-10-14T16:45:33.437Z,100575.31
2022-10-14T16:48:01.540Z,100581.66
2022-10-14T16:50:29.619Z,100577.25
2022-10-14T16:53:15.331Z,100569.34
2022-10-14T16:55:44.649Z,100568.66
2022-10-14T16:58:12.613Z,100570.59
2022-10-14T17:00:40.586Z,100569.59
2022-10-14T17:03:08.658Z,100566.06
2022-10-14T17:05:36.869Z,100561.63
2022-10-14T17:08:05.041Z,100563.47
2022-10-14T17:10:33.015Z,100566.97
2022-10-14T17:13:02.502Z,100560.69
2022-10-14T17:15:30.522Z,100558.75
2022-10-14T17:17:58.563Z,100553.38
2022-10-14T17:20:27.420Z,100564.00
2022-10-14T17:22:55.448Z,100559.56
2022-10-14T17:25:23.430Z,100558.63
2022-10-14T17:27:51.412Z,100556.72
2022-10-14T17:30:20.860Z,100560.31
2022-10-14T17:32:48.871Z,100556.84
2022-10-14T17:35:16.956Z,100548.88
2022-10-14T17:37:45.278Z,100548.97
2022-10-14T17:40:13.708Z,100543.53
2022-10-14T17:42:41.788Z,100546.00
2022-10-14T17:45:11.037Z,100532.78
2022-10-14T17:47:40.370Z,100530.06
2022-10-14T17:50:10.885Z,100526.50
2022-10-14T17:52:38.826Z,100523.94
2022-10-14T17:55:07.703Z,100526.59
2022-10-14T17:57:35.805Z,100507.94
2022-10-14T18:00:04.258Z,100508.72
2022-10-14T18:02:32.354Z,100507.75
2022-10-14T18:05:01.945Z,100491.69
2022-10-14T18:07:29.890Z,100495.19
2022-10-14T18:09:57.850Z,100493.34
2022-10-14T18:12:25.834Z,100492.34
2022-10-14T18:14:54.050Z,100486.03
2022-10-14T18:17:22.379Z,100491.28
2022-10-14T18:19:52.335Z,100487.78
2022-10-14T18:22:21.940Z,100481.91
2022-10-14T18:24:49.955Z,100476.66
2022-10-14T18:27:17.931Z,100490.09
2022-10-14T18:29:45.915Z,100482.16
2022-10-14T18:32:13.863Z,100484.91
2022-10-14T18:34:41.916Z,100490.25
2022-10-14T18:37:09.897Z,100483.97
2022-10-14T18:39:39.286Z,100483.91
2022-10-14T18:42:07.268Z,100482.91
2022-10-14T18:44:35.260Z,100482.72
2022-10-14T18:47:03.253Z,100471.94
2022-10-14T18:49:31.302Z,100470.78
2022-10-14T18:51:59.256Z,100465.34
2022-10-14T18:54:28.139Z,100469.78
2022-10-14T18:56:59.698Z,100475.06
2022-10-14T18:59:29.216Z,100473.09
2022-10-14T19:01:57.252Z,100468.56
2022-10-14T19:04:27.994Z,100474.75
2022-10-14T19:06:55.956Z,100461.38
2022-10-14T19:09:28.955Z,100464.91
2022-10-14T19:11:59.544Z,100459.56
2022-10-14T19:14:28.691Z,100455.94
2022-10-14T19:16:56.764Z,100458.63
2022-10-14T19:19:25.258Z,100456.78
2022-10-14T19:21:54.413Z,100455.94
2022-10-14T19:24:22.817Z,100457.69
2022-10-14T19:26:50.968Z,100458.63
2022-10-14T19:29:20.348Z,100452.41
2022-10-14T19:31:51.385Z,100440.88
2022-10-14T19:34:19.318Z,100446.16
2022-10-14T19:36:47.326Z,100448.84
2022-10-14T19:39:16.806Z,100443.56
2022-10-14T19:41:46.480Z,100442.78
2022-10-14T19:44:16.395Z,100438.25
2022-10-14T19:46:46.284Z,100422.41
2022-10-14T19:49:15.671Z,100418.00
2022-10-14T19:51:43.675Z,100418.88
2022-10-14T19:54:12.946Z,100416.28
2022-10-14T19:56:40.932Z,100401.28
2022-10-14T19:59:09.705Z,100403.97
2022-10-14T20:01:37.728Z,100400.41
2022-10-14T20:04:07.527Z,100396.00
2022-10-14T20:06:38.208Z,100389.91
2022-10-14T20:09:06.987Z,100383.75
2022-10-14T20:11:35.885Z,100381.13
2022-10-14T20:14:04.102Z,100376.63
2022-10-14T20:16:32.063Z,100368.59
2022-10-14T20:19:00.100Z,100373.06
2022-10-14T20:21:30.070Z,100371.28
2022-10-14T20:23:59.045Z,100369.53
2022-10-14T20:26:27.077Z,100360.63
2022-10-14T20:28:55.351Z,100362.38
2022-10-14T20:31:25.258Z,100370.38
2022-10-14T20:33:53.268Z,100368.56
2022-10-14T20:36:22.685Z,100369.38
2022-10-14T20:38:52.542Z,100362.47
2022-10-14T20:41:22.201Z,100374.72
2022-10-14T20:43:50.697Z,100371.09
2022-10-14T20:46:19.237Z,100366.69
2022-10-14T20:48:47.403Z,100364.88
2022-10-14T20:51:18.006Z,100365.81
2022-10-14T20:53:46.190Z,100360.56
2022-10-14T20:56:16.019Z,100361.38
2022-10-14T20:58:44.237Z,100357.88
2022-10-14T21:01:14.107Z,100360.56
2022-10-14T21:03:43.555Z,100357.97
2022-10-14T21:06:13.125Z,100347.41
2022-10-14T21:08:41.413Z,100343.97
2022-10-14T21:11:14.888Z,100343.06
2022-10-14T21:13:46.540Z,100343.97
2022-10-14T21:16:16.768Z,100345.03
2022-10-14T21:18:49.123Z,100338.84
2022-10-14T21:21:18.533Z,100346.50
2022-10-14T21:23:46.557Z,100344.94
2022-10-14T21:26:14.723Z,100331.69
2022-10-14T21:28:43.445Z,100333.34
2022-10-14T21:31:17.361Z,100335.94
2022-10-14T21:33:47.483Z,100325.31
2022-10-14T21:36:17.189Z,100322.63
2022-10-14T21:38:45.217Z,100315.56
2022-10-14T21:41:13.553Z,100314.69
2022-10-14T21:43:41.626Z,100311.16
2022-10-14T21:46:13.419Z,100308.47
2022-10-14T21:48:42.766Z,100304.84
2022-10-14T21:51:12.625Z,100303.97
2022-10-14T21:53:42.220Z,100302.22
2022-10-14T21:56:11.998Z,100298.63
2022-10-14T21:58:40.335Z,100297.69
2022-10-14T22:01:09.978Z,100295.00
2022-10-14T22:03:40.300Z,100289.66
2022-10-14T22:06:10.542Z,100292.31
2022-10-14T22:08:40.751Z,100295.00
2022-10-14T22:11:15.894Z,100297.69
2022-10-14T22:13:43.899Z,100290.66
2022-10-14T22:16:13.439Z,100295.00
2022-10-14T22:18:44.789Z,100295.09
2022-10-14T22:21:12.722Z,100298.63
2022-10-14T22:23:40.672Z,100287.03
2022-10-14T22:26:12.040Z,100283.47
2022-10-14T22:28:40.765Z,100285.22
2022-10-14T22:31:10.533Z,100286.16
2022-10-14T22:33:39.510Z,100286.16
2022-10-14T22:36:10.241Z,100279.00
2022-10-14T22:38:38.677Z,100280.75
2022-10-14T22:41:07.903Z,100275.44
2022-10-14T22:43:36.848Z,100266.56
2022-10-14T22:46:07.014Z,100264.75
2022-10-14T22:48:35.961Z,100256.78
2022-10-14T22:51:05.002Z,100267.38
2022-10-14T22:53:34.994Z,100268.31
2022-10-14T22:56:02.992Z,100263.72
2022-10-14T22:58:31.003Z,100260.13
2022-10-14T23:01:06.852Z,100260.81
2022-10-14T23:03:35.404Z,100256.34
2022-10-14T23:06:04.841Z,100250.34
2022-10-14T23:08:35.102Z,100259.88
2022-10-14T23:11:04.133Z,100252.75
2022-10-14T23:13:32.939Z,100247.66
2022-10-14T23:16:02.323Z,100256.19
2022-10-14T23:18:33.059Z,100243.66
2022-10-14T23:21:08.564Z,100253.41
2022-10-14T23:23:37.972Z,100248.94
2022-10-14T23:26:06.594Z,100243.66
2022-10-14T23:28:34.605Z,100248.16
2022-10-14T23:31:08.255Z,100242.72
2022-10-14T23:33:36.198Z,100245.41
2022-10-14T23:36:05.323Z,100243.59
2022-10-14T23:38:34.067Z,100250.72
2022-10-14T23:41:04.654Z,100246.09
2022-10-14T23:43:32.728Z,100246.19
2022-10-14T23:46:00.934Z,100246.09
2022-10-14T23:48:29.643Z,100248.69
2022-10-14T23:50:57.791Z,100246.03
2022-10-14T23:53:26.886Z,100247.44
2022-10-14T23:55:55.168Z,100237.09
2022-10-14T23:58:25.301Z,100239.56
